Spring Valley, Texas
Current Conditions -  °F | °C
As of 4:55 PM on Thursday 20 Nov 2014 (Local Time) from KMCJ Reporting Station
Overcast Overcast  
Wind Chill: 68°   Ceiling: 4600
Heat Index: 68°   Visibility: 10mi
Dew Point: 54°   Wind: 15mph
Humidity: 60%   Direction: 110°ESE
Pressure: 30.05"   Gusts: 24mph
Location:  29.7698°N, 95.5164°W
Report Text: KMCJ 202255Z AUTO 11013G21KT 10SM OVC046 20/12 A3005 RMK AO1
Loading
Personal Weather Stations






























Interactive Weather Map New forecast layout! Learn more

10-Day Weather Forecast

Advertisements
Track Severe Weather on mobile